Time;durP1;ratioP1;P1;durP2;ratioP2;P2;SDS_P1;SDS_P2;PMS_P1;PMS_P2;Temp;Humidity;BMP_temperature;BMP_pressure;BME280_temperature;BME280_humidity;BME280_pressure;Samples;Min_cycle;Max_cycle;Signal;HPM_P1;HPM_P2
2023/02/11 00:01:28;;;;;;;107.40;52.10;;;;;;;-2.92;64.02;98778.15;109037;1251;95556;-78
2023/02/11 00:03:57;;;;;;;130.90;64.30;;;;;;;-2.93;63.97;98774.17;109010;1250;96003;-75
2023/02/11 00:06:28;;;;;;;112.70;61.10;;;;;;;-2.95;63.91;98772.14;108746;1251;103744;-74
2023/02/11 00:08:57;;;;;;;134.80;66.20;;;;;;;-2.98;63.94;98769.14;109000;1250;101325;-75
2023/02/11 00:11:29;;;;;;;120.70;57.00;;;;;;;-2.99;63.86;98776.30;108950;1250;100172;-74
2023/02/11 00:14:02;;;;;;;141.00;62.30;;;;;;;-3.00;63.98;98787.05;108893;1250;95537;-75
2023/02/11 00:16:31;;;;;;;164.00;67.20;;;;;;;-3.01;63.87;98788.71;109013;1249;96006;-74
2023/02/11 00:19:02;;;;;;;102.70;51.60;;;;;;;-3.04;63.83;98789.61;108983;1250;103517;-74
2023/02/11 00:21:30;;;;;;;86.60;45.80;;;;;;;-3.05;63.84;98787.23;108984;1250;101338;-76
2023/02/11 00:24:01;;;;;;;85.60;44.40;;;;;;;-3.08;63.86;98785.30;108958;1250;99749;-75
2023/02/11 00:26:35;;;;;;;91.50;46.50;;;;;;;-3.13;64.11;98789.10;108922;1250;95790;-77
2023/02/11 00:29:05;;;;;;;93.60;48.40;;;;;;;-3.17;63.98;98784.78;108983;1251;95897;-77
2023/02/11 00:31:33;;;;;;;95.40;50.20;;;;;;;-3.18;64.02;98791.70;109007;1250;103669;-75
2023/02/11 00:34:02;;;;;;;138.60;59.70;;;;;;;-3.18;63.87;98791.20;109003;1250;101329;-74
2023/02/11 00:36:30;;;;;;;108.90;54.80;;;;;;;-3.22;63.78;98783.86;108965;1250;98512;-75
2023/02/11 00:39:00;;;;;;;100.20;53.30;;;;;;;-3.34;63.81;98776.44;108999;1250;95589;-77
2023/02/11 00:41:28;;;;;;;111.30;55.50;;;;;;;-3.39;63.81;98783.11;108662;1251;95989;-76
2023/02/11 00:43:56;;;;;;;102.50;55.70;;;;;;;-3.43;63.88;98784.92;108902;1250;103048;-74
2023/02/11 00:46:25;;;;;;;115.10;59.00;;;;;;;-3.56;63.88;98779.55;108987;1251;101558;-74
2023/02/11 00:48:56;;;;;;;115.80;59.60;;;;;;;-3.65;63.84;98777.25;108975;1250;97549;-76
2023/02/11 00:51:26;;;;;;;116.20;60.20;;;;;;;-3.71;64.02;98770.76;108568;1251;95654;-77
2023/02/11 00:53:55;;;;;;;112.20;56.50;;;;;;;-3.75;64.08;98767.11;108578;1251;96077;-74
2023/02/11 00:56:23;;;;;;;115.30;60.10;;;;;;;-3.80;64.03;98757.60;109020;1250;103039;-75
2023/02/11 00:58:52;;;;;;;115.00;59.50;;;;;;;-3.85;64.05;98750.30;109014;1249;101598;-77
2023/02/11 01:01:20;;;;;;;122.40;60.40;;;;;;;-3.92;64.10;98746.33;108964;1250;99806;-77
2023/02/11 01:03:48;;;;;;;114.60;59.50;;;;;;;-4.01;64.03;98749.30;108946;1251;95546;-75
2023/02/11 01:06:17;;;;;;;114.50;55.90;;;;;;;-4.08;64.26;98742.66;108659;1251;96071;-75
2023/02/11 01:08:45;;;;;;;104.80;54.20;;;;;;;-4.16;64.35;98739.59;108924;1250;103193;-75
2023/02/11 01:11:17;;;;;;;103.50;53.30;;;;;;;-4.27;64.40;98736.21;108993;1249;101304;-74
2023/02/11 01:13:47;;;;;;;100.00;50.80;;;;;;;-4.33;64.38;98737.02;108947;1250;99882;-73
2023/02/11 01:16:16;;;;;;;99.90;53.80;;;;;;;-4.39;64.28;98728.60;108939;1249;95847;-74
2023/02/11 01:18:46;;;;;;;95.30;51.70;;;;;;;-4.47;64.55;98724.30;108960;1250;96022;-77
2023/02/11 01:21:15;;;;;;;93.80;51.20;;;;;;;-4.52;64.74;98726.02;108974;1249;103371;-76
2023/02/11 01:23:43;;;;;;;97.80;52.30;;;;;;;-4.53;64.71;98722.38;108596;1251;100425;-74
2023/02/11 01:26:11;;;;;;;102.90;56.80;;;;;;;-4.54;64.56;98718.40;108984;1250;99828;-75
2023/02/11 01:28:39;;;;;;;93.40;50.20;;;;;;;-4.57;64.60;98714.34;108892;1250;95499;-76
2023/02/11 01:31:07;;;;;;;95.80;50.30;;;;;;;-4.58;64.76;98713.19;108956;1250;96011;-77
2023/02/11 01:33:35;;;;;;;90.50;51.30;;;;;;;-4.61;64.67;98704.39;108969;1250;103771;-75
2023/02/11 01:36:05;;;;;;;92.30;48.90;;;;;;;-4.68;64.72;98699.52;108598;1249;101458;-74
2023/02/11 01:38:34;;;;;;;88.70;50.70;;;;;;;-4.73;64.92;98699.27;108944;1250;99771;-74
2023/02/11 01:41:08;;;;;;;94.90;51.80;;;;;;;-4.75;64.93;98693.95;108951;1250;95558;-75
2023/02/11 01:43:40;;;;;;;95.70;52.30;;;;;;;-4.79;65.03;98687.98;109044;1251;96042;-74
2023/02/11 01:46:34;;;;;;;66.50;37.20;;;;;;;-4.81;65.07;98683.35;109023;1251;102437;-75
2023/02/11 01:49:23;;;;;;;94.30;52.40;;;;;;;-4.87;65.03;98673.19;108978;1251;101162;-75
2023/02/11 01:52:01;;;;;;;88.40;50.30;;;;;;;-4.91;65.08;98666.00;108925;1253;98912;-74
2023/02/11 01:57:27;;;;;;;87.30;49.00;;;;;;;-5.09;65.19;98659.30;109003;1251;96037;-75
2023/02/11 02:00:10;;;;;;;84.60;48.00;;;;;;;-5.21;65.32;98659.44;109018;1250;103642;-75
2023/02/11 02:02:47;;;;;;;88.40;51.40;;;;;;;-5.22;65.48;98656.49;109019;1249;100257;-75
2023/02/11 02:05:24;;;;;;;84.40;49.80;;;;;;;-5.21;65.59;98656.84;108995;1250;98812;-75
2023/02/11 02:08:00;;;;;;;87.80;49.10;;;;;;;-5.22;65.42;98644.42;108942;1250;95853;-78
2023/02/11 02:10:29;;;;;;;87.70;48.00;;;;;;;-5.23;65.68;98637.06;109008;1251;95990;-75
2023/02/11 02:12:58;;;;;;;83.20;46.20;;;;;;;-5.22;65.87;98640.53;108939;1250;103531;-75
2023/02/11 02:15:32;;;;;;;78.40;45.30;;;;;;;-5.20;65.80;98634.14;109000;1249;101191;-76
2023/02/11 02:18:04;;;;;;;78.50;44.50;;;;;;;-5.20;65.88;98630.62;108990;1250;100029;-75
2023/02/11 02:20:56;;;;;;;81.90;44.80;;;;;;;-5.23;65.87;98630.75;108978;1249;95577;-75
2023/02/11 02:23:52;;;;;;;74.40;44.50;;;;;;;-5.25;66.01;98639.81;108999;1249;95669;-76
2023/02/11 02:26:51;;;;;;;79.30;46.00;;;;;;;-5.22;66.14;98642.83;109029;1250;102744;-74
2023/02/11 02:29:53;;;;;;;76.80;44.40;;;;;;;-5.19;66.11;98639.65;108997;1250;101460;-75
2023/02/11 02:32:43;;;;;;;53.90;33.60;;;;;;;-5.17;66.13;98637.95;108971;1251;99728;-75
2023/02/11 02:35:28;;;;;;;68.00;41.60;;;;;;;-5.12;66.30;98630.33;108997;1250;95646;-74
2023/02/11 02:38:23;;;;;;;69.60;39.40;;;;;;;-5.08;66.45;98617.09;109045;1250;96063;-75
2023/02/11 02:40:51;;;;;;;71.90;42.10;;;;;;;-5.05;66.58;98599.75;108920;1251;103305;-75
2023/02/11 02:43:21;;;;;;;64.30;40.70;;;;;;;-5.02;66.48;98599.25;109023;1251;101039;-75
2023/02/11 02:45:49;;;;;;;63.20;39.00;;;;;;;-5.00;66.55;98598.07;108961;1250;100062;-77
2023/02/11 02:48:27;;;;;;;63.00;40.50;;;;;;;-4.96;66.50;98594.88;108986;1249;95603;-75
2023/02/11 02:51:40;;;;;;;66.80;38.50;;;;;;;-4.93;66.54;98581.65;109045;1251;96004;-75
2023/02/11 02:54:08;;;;;;;;;;;;;;;-4.89;66.60;98584.98;108348;1256;103343;-75
2023/02/11 02:56:51;;;;;;;66.10;39.30;;;;;;;-4.86;66.77;98594.84;108310;1256;101464;-75
2023/02/11 02:59:27;;;;;;;63.70;37.50;;;;;;;-4.81;66.90;98590.65;108306;1256;100254;-75
2023/02/11 03:02:15;;;;;;;63.70;37.20;;;;;;;-4.76;66.95;98591.57;108275;1259;95684;-74
2023/02/11 03:05:09;;;;;;;62.40;35.90;;;;;;;-4.70;66.94;98588.27;108319;1256;96113;-77
2023/02/11 03:07:47;;;;;;;61.70;35.60;;;;;;;-4.63;66.99;98592.98;108306;1256;103610;-75
2023/02/11 03:10:25;;;;;;;59.40;34.80;;;;;;;-4.57;66.96;98602.61;108343;1256;101626;-75
2023/02/11 03:12:55;;;;;;;59.50;34.40;;;;;;;-4.52;67.03;98605.84;108293;1256;100096;-77
2023/02/11 03:15:27;;;;;;;61.00;35.90;;;;;;;-4.47;67.06;98597.09;108338;1257;95667;-74
2023/02/11 03:17:58;;;;;;;61.40;35.20;;;;;;;-4.41;66.98;98587.10;108243;1256;96509;-75
2023/02/11 03:20:28;;;;;;;61.10;36.40;;;;;;;-4.37;66.98;98590.92;108348;1257;103699;-75
2023/02/11 03:23:08;;;;;;;65.90;38.50;;;;;;;-4.33;67.06;98591.56;108358;1256;101680;-75
2023/02/11 03:25:44;;;;;;;63.00;36.00;;;;;;;-4.30;67.05;98593.50;108722;1250;100081;-75
2023/02/11 03:28:36;;;;;;;66.90;38.10;;;;;;;-4.27;67.00;98590.86;108958;1250;95582;-76
2023/02/11 03:31:20;;;;;;;62.40;36.50;;;;;;;-4.24;66.97;98594.00;108959;1250;95961;-75
2023/02/11 03:34:02;;;;;;;61.30;34.20;;;;;;;-4.19;67.17;98591.41;108993;1251;103353;-76
2023/02/11 03:36:39;;;;;;;57.10;32.90;;;;;;;-4.13;67.29;98585.29;108995;1250;100011;-76
2023/02/11 03:39:11;;;;;;;62.10;32.70;;;;;;;-4.12;67.31;98578.17;108979;1250;99998;-79
2023/02/11 03:41:42;;;;;;;66.50;37.20;;;;;;;-4.13;67.36;98574.17;108672;1251;95591;-78
2023/02/11 03:44:15;;;;;;;64.60;36.00;;;;;;;-4.14;67.23;98574.76;108990;1251;95627;-76
2023/02/11 03:46:50;;;;;;;62.90;34.90;;;;;;;-4.14;67.25;98572.12;109011;1251;103499;-76
2023/02/11 03:49:22;;;;;;;59.90;34.40;;;;;;;-4.13;67.22;98563.96;108988;1250;101675;-76
2023/02/11 03:51:53;;;;;;;60.10;33.90;;;;;;;-4.09;67.23;98554.60;108974;1251;99818;-76
2023/02/11 03:54:27;;;;;;;57.50;33.40;;;;;;;-4.08;67.28;98545.91;108651;1251;95792;-75
2023/02/11 03:56:59;;;;;;;63.70;34.90;;;;;;;-4.07;67.36;98535.29;108788;1251;96077;-75
2023/02/11 03:59:28;;;;;;;69.00;35.20;;;;;;;-4.05;67.40;98523.08;108972;1251;102543;-76
2023/02/11 04:01:58;;;;;;;54.00;31.10;;;;;;;-4.02;67.64;98505.29;108999;1251;101608;-76
2023/02/11 04:04:26;;;;;;;54.00;31.50;;;;;;;-3.95;67.80;98504.15;108938;1251;99590;-76
2023/02/11 04:06:54;;;;;;;57.90;31.40;;;;;;;-3.88;67.92;98509.23;108993;1251;95558;-76
2023/02/11 04:09:22;;;;;;;55.70;29.40;;;;;;;-3.86;68.14;98495.17;108649;1250;96120;-77
2023/02/11 04:11:50;;;;;;;51.70;28.80;;;;;;;-3.81;68.20;98491.69;108971;1251;103456;-79
2023/02/11 04:14:18;;;;;;;53.50;29.90;;;;;;;-3.75;68.24;98489.40;108986;1250;101449;-76
2023/02/11 04:16:47;;;;;;;48.90;27.90;;;;;;;-3.71;68.34;98480.82;108949;1253;100066;-77
2023/02/11 04:19:15;;;;;;;50.30;28.20;;;;;;;-3.65;68.33;98467.48;108955;1251;95554;-76
2023/02/11 04:21:43;;;;;;;47.40;26.80;;;;;;;-3.61;68.36;98461.00;108976;1250;96364;-79
2023/02/11 04:24:11;;;;;;;45.70;26.20;;;;;;;-3.54;68.27;98462.19;108998;1250;103195;-77
2023/02/11 04:26:39;;;;;;;43.30;24.60;;;;;;;-3.43;68.40;98463.89;108992;1251;101276;-77
2023/02/11 04:29:08;;;;;;;44.30;23.70;;;;;;;-3.30;68.56;98459.20;108982;1250;99895;-79
2023/02/11 04:31:36;;;;;;;45.40;25.20;;;;;;;-3.19;68.48;98448.63;108977;1250;95499;-79
2023/02/11 04:34:04;;;;;;;47.10;25.90;;;;;;;-3.08;68.37;98446.53;109032;1250;96024;-77
2023/02/11 04:36:32;;;;;;;44.60;24.50;;;;;;;-3.01;68.48;98444.94;109025;1251;103969;-79
2023/02/11 04:39:00;;;;;;;43.40;23.70;;;;;;;-2.95;68.43;98447.73;108989;1251;101439;-77
2023/02/11 04:41:28;;;;;;;42.80;24.00;;;;;;;-2.88;68.31;98435.99;108994;1249;100405;-78
2023/02/11 04:43:56;;;;;;;46.00;24.90;;;;;;;-2.83;68.30;98421.89;108942;1251;95541;-77
2023/02/11 04:46:25;;;;;;;48.30;24.60;;;;;;;-2.79;68.22;98413.39;109021;1251;95987;-77
2023/02/11 04:48:53;;;;;;;47.10;24.80;;;;;;;-2.75;68.22;98404.95;108658;1251;103620;-77
2023/02/11 04:51:21;;;;;;;46.50;23.40;;;;;;;-2.69;68.25;98402.06;108935;1251;101158;-76
2023/02/11 04:53:49;;;;;;;45.90;25.80;;;;;;;-2.63;68.17;98404.27;109016;1251;99893;-76
2023/02/11 04:56:17;;;;;;;48.50;25.70;;;;;;;-2.57;67.86;98401.27;108789;1251;95615;-76
2023/02/11 04:58:45;;;;;;;41.70;22.70;;;;;;;-2.52;68.02;98400.77;108949;1253;96041;-76
2023/02/11 05:01:16;;;;;;;42.00;23.30;;;;;;;-2.48;67.90;98395.16;109059;1251;103518;-80
2023/02/11 05:03:44;;;;;;;41.00;22.10;;;;;;;-2.43;67.89;98388.70;108966;1250;101441;-79
2023/02/11 05:06:12;;;;;;;39.70;22.00;;;;;;;-2.39;67.69;98388.88;108964;1251;98962;-79
2023/02/11 05:08:40;;;;;;;37.70;21.60;;;;;;;-2.33;67.60;98395.38;109018;1250;95612;-76
2023/02/11 05:11:16;;;;;;;40.80;22.40;;;;;;;-2.27;67.59;98401.13;109022;1250;96033;-78
2023/02/11 05:13:44;;;;;;;38.40;20.50;;;;;;;-2.23;67.56;98401.50;108989;1251;102322;-75
2023/02/11 05:16:13;;;;;;;38.30;21.30;;;;;;;-2.19;67.57;98399.96;109001;1253;101367;-76
2023/02/11 05:18:43;;;;;;;35.30;19.00;;;;;;;-2.14;67.47;98394.17;108968;1251;99835;-78
2023/02/11 05:21:14;;;;;;;33.50;19.40;;;;;;;-2.08;67.48;98396.63;108956;1250;95587;-77
2023/02/11 05:23:44;;;;;;;40.90;21.10;;;;;;;-2.03;67.30;98395.17;108973;1253;95634;-76
2023/02/11 05:26:12;;;;;;;36.90;19.90;;;;;;;-1.97;67.33;98388.92;108993;1249;103699;-76
2023/02/11 05:28:43;;;;;;;36.70;20.50;;;;;;;-1.92;67.30;98386.27;108972;1250;101247;-76
2023/02/11 05:31:13;;;;;;;36.40;21.60;;;;;;;-1.88;67.12;98388.77;108962;1251;100018;-76
2023/02/11 05:33:41;;;;;;;37.80;20.50;;;;;;;-1.86;67.13;98389.48;108954;1250;95792;-76
2023/02/11 05:36:13;;;;;;;34.40;19.40;;;;;;;-1.84;67.06;98381.77;109007;1250;96054;-79
2023/02/11 05:38:42;;;;;;;39.80;20.20;;;;;;;-1.82;67.12;98380.55;109003;1250;103623;-80
2023/02/11 05:41:11;;;;;;;38.10;20.30;;;;;;;-1.78;67.07;98389.82;109029;1251;102161;-76
2023/02/11 05:43:39;;;;;;;38.00;20.30;;;;;;;-1.76;67.00;98398.89;108991;1249;98750;-76
2023/02/11 05:46:07;;;;;;;37.70;21.00;;;;;;;-1.76;67.04;98401.67;108904;1251;95565;-76
2023/02/11 05:48:35;;;;;;;38.20;19.60;;;;;;;-1.76;67.01;98395.31;108685;1251;96014;-77
2023/02/11 05:51:04;;;;;;;36.00;19.20;;;;;;;-1.74;66.97;98388.52;108977;1251;103440;-80
2023/02/11 05:53:32;;;;;;;35.50;19.80;;;;;;;-1.74;66.99;98393.96;108699;1250;101323;-76
2023/02/11 05:56:00;;;;;;;35.10;19.20;;;;;;;-1.71;67.02;98399.59;108937;1251;99734;-77
2023/02/11 05:58:28;;;;;;;37.40;19.70;;;;;;;-1.68;66.96;98395.80;108643;1253;95675;-80
2023/02/11 06:00:56;;;;;;;33.20;18.50;;;;;;;-1.65;67.03;98391.58;108911;1251;96009;-77
2023/02/11 06:03:24;;;;;;;32.60;19.40;;;;;;;-1.65;67.02;98389.79;109009;1253;103414;-77
2023/02/11 06:05:53;;;;;;;36.90;20.70;;;;;;;-1.64;67.09;98391.65;108999;1250;101565;-81
2023/02/11 06:08:21;;;;;;;38.40;20.90;;;;;;;-1.62;67.05;98396.06;108670;1251;99473;-76
2023/02/11 06:10:49;;;;;;;41.40;21.20;;;;;;;-1.59;66.97;98392.33;108860;1251;95534;-79
2023/02/11 06:13:18;;;;;;;39.10;21.10;;;;;;;-1.56;66.92;98386.61;108991;1249;96044;-77
2023/02/11 06:15:56;;;;;;;36.80;20.30;;;;;;;-1.52;66.93;98384.08;108953;1251;103515;-77
2023/02/11 06:18:24;;;;;;;36.20;19.50;;;;;;;-1.50;66.87;98385.48;109004;1251;101380;-76
2023/02/11 06:20:52;;;;;;;38.50;20.70;;;;;;;-1.47;66.90;98379.27;109001;1251;99894;-77
2023/02/11 06:23:21;;;;;;;33.70;18.80;;;;;;;-1.43;67.00;98373.81;108943;1251;95842;-77
2023/02/11 06:25:49;;;;;;;37.00;19.80;;;;;;;-1.39;66.86;98368.27;108879;1251;96971;-77
2023/02/11 06:28:17;;;;;;;35.30;19.60;;;;;;;-1.35;66.77;98367.09;108978;1251;103387;-78
2023/02/11 06:30:45;;;;;;;33.80;18.50;;;;;;;-1.31;66.90;98369.41;109000;1251;101234;-80
2023/02/11 06:33:14;;;;;;;32.70;19.30;;;;;;;-1.28;66.84;98367.58;108993;1251;98791;-77
2023/02/11 06:35:42;;;;;;;35.30;19.40;;;;;;;-1.27;66.80;98366.09;108775;1251;95634;-79
2023/02/11 06:38:10;;;;;;;35.40;19.20;;;;;;;-1.23;66.69;98366.19;108921;1251;96222;-76
2023/02/11 06:40:38;;;;;;;36.90;20.50;;;;;;;-1.19;66.77;98363.54;108614;1254;104612;-77
2023/02/11 06:43:06;;;;;;;40.10;21.00;;;;;;;-1.15;66.69;98362.17;108927;1251;100677;-79
2023/02/11 06:45:34;;;;;;;35.60;20.70;;;;;;;-1.12;66.69;98356.80;109013;1250;99441;-79
2023/02/11 06:48:02;;;;;;;37.60;21.60;;;;;;;-1.10;66.62;98357.59;108699;1251;95657;-76
2023/02/11 06:50:30;;;;;;;39.70;21.10;;;;;;;-1.10;66.61;98359.01;109003;1249;96002;-79
2023/02/11 06:53:01;;;;;;;42.10;21.30;;;;;;;-1.09;66.63;98358.02;108992;1250;103725;-79
2023/02/11 06:55:29;;;;;;;37.90;20.10;;;;;;;-1.06;66.69;98350.23;108991;1249;101496;-80
2023/02/11 06:57:57;;;;;;;35.60;20.60;;;;;;;-1.05;66.65;98339.70;108974;1250;99955;-78
2023/02/11 07:00:25;;;;;;;32.60;18.80;;;;;;;-1.03;66.58;98331.59;108910;1250;95520;-77
2023/02/11 07:02:53;;;;;;;31.50;17.80;;;;;;;-0.98;66.60;98337.42;109023;1251;96009;-78
2023/02/11 07:05:21;;;;;;;34.30;19.60;;;;;;;-0.94;66.69;98338.89;108977;1251;103529;-79
2023/02/11 07:07:49;;;;;;;31.80;17.50;;;;;;;-0.90;66.52;98337.33;109018;1253;100537;-77
2023/02/11 07:10:18;;;;;;;35.20;18.10;;;;;;;-0.82;66.63;98336.70;108979;1250;98987;-82
2023/02/11 07:12:46;;;;;;;32.60;17.30;;;;;;;-0.74;66.49;98322.86;108975;1251;95663;-79
2023/02/11 07:15:14;;;;;;;32.80;18.40;;;;;;;-0.66;66.58;98316.55;108695;1251;96438;-79
2023/02/11 07:17:42;;;;;;;33.50;17.30;;;;;;;-0.59;66.65;98319.16;108895;1250;103600;-74
2023/02/11 07:20:13;;;;;;;34.20;17.40;;;;;;;-0.52;66.51;98323.20;108655;1256;101040;-76
2023/02/11 07:22:41;;;;;;;31.10;17.90;;;;;;;-0.45;66.33;98327.59;108787;1251;99478;-74
2023/02/11 07:25:09;;;;;;;33.40;18.90;;;;;;;-0.39;66.35;98330.85;108995;1251;95595;-79
2023/02/11 07:27:38;;;;;;;36.10;18.90;;;;;;;-0.32;66.30;98334.91;108986;1250;95977;-74
2023/02/11 07:30:06;;;;;;;33.70;19.30;;;;;;;-0.25;66.29;98328.52;108974;1251;102793;-74
2023/02/11 07:32:34;;;;;;;34.10;19.40;;;;;;;-0.21;66.25;98322.02;109014;1250;101457;-78
2023/02/11 07:35:02;;;;;;;33.40;18.50;;;;;;;-0.15;66.14;98316.44;108959;1250;100025;-74
2023/02/11 07:37:31;;;;;;;33.10;19.00;;;;;;;-0.07;66.06;98321.97;108965;1251;95580;-80
2023/02/11 07:39:59;;;;;;;34.30;18.80;;;;;;;0.00;65.89;98314.45;108988;1251;96052;-75
2023/02/11 07:42:27;;;;;;;32.80;18.60;;;;;;;0.07;65.71;98310.22;109032;1251;102327;-74
2023/02/11 07:44:55;;;;;;;33.30;17.60;;;;;;;0.12;65.56;98311.38;108858;1251;297337;-78
2023/02/11 07:47:23;;;;;;;30.90;17.80;;;;;;;0.15;65.56;98313.06;108621;1250;100227;-76
2023/02/11 07:49:52;;;;;;;30.60;18.10;;;;;;;0.18;65.41;98317.58;108680;1251;95659;-74
2023/02/11 07:52:20;;;;;;;34.50;18.70;;;;;;;0.23;65.46;98322.68;109021;1250;96080;-76
2023/02/11 07:54:48;;;;;;;33.80;17.70;;;;;;;0.27;65.29;98325.73;108939;1250;103715;-74
2023/02/11 07:57:17;;;;;;;37.00;19.60;;;;;;;0.31;65.16;98321.63;109020;1251;101292;-82
2023/02/11 07:59:45;;;;;;;35.20;19.20;;;;;;;0.37;65.08;98322.97;108900;1251;98786;-81
2023/02/11 08:02:51;;;;;;;34.50;19.20;;;;;;;0.43;65.20;98323.20;108776;1251;95634;-83
2023/02/11 08:09:08;;;;;;;32.70;17.50;;;;;;;0.53;64.85;98306.79;109074;1250;102046;-79
2023/02/11 08:19:50;;;;;;;37.20;20.30;;;;;;;0.56;64.61;98296.77;108914;1251;96516;-80
2023/02/11 08:22:18;;;;;;;36.50;19.80;;;;;;;0.54;64.59;98300.80;109025;1251;96038;-77
2023/02/11 08:24:49;;;;;;;36.00;19.20;;;;;;;0.58;64.60;98304.41;108821;1251;103691;-75
2023/02/11 08:27:21;;;;;;;33.20;19.10;;;;;;;0.60;64.54;98299.83;108839;1250;100541;-75
2023/02/11 08:29:52;;;;;;;32.90;19.10;;;;;;;0.63;64.52;98300.40;108667;1251;98367;-74
2023/02/11 08:32:24;;;;;;;36.50;20.50;;;;;;;0.73;64.43;98296.59;108960;1250;95578;-73
2023/02/11 09:12:12;;;;;;;35.60;19.30;;;;;;;3.16;62.04;98282.52;108973;1249;97139;-75
2023/02/11 09:14:40;;;;;;;33.60;17.30;;;;;;;3.47;61.64;98282.59;109073;1250;103397;-76
2023/02/11 09:17:09;;;;;;;34.10;20.00;;;;;;;3.71;61.33;98288.60;108740;1251;101299;-75
2023/02/11 09:19:37;;;;;;;31.50;18.20;;;;;;;3.93;60.93;98289.64;108690;1249;98499;-78
2023/02/11 09:22:05;;;;;;;37.30;20.20;;;;;;;4.08;60.56;98289.85;108614;1251;95898;-75
2023/02/11 09:24:34;;;;;;;34.00;19.80;;;;;;;4.10;60.28;98295.69;108963;1250;96031;-77
2023/02/11 09:27:02;;;;;;;36.40;20.10;;;;;;;4.16;60.16;98295.48;108990;1250;103427;-76
2023/02/11 09:29:30;;;;;;;31.00;18.30;;;;;;;4.23;60.19;98292.26;108913;1250;101252;-77
2023/02/11 09:31:58;;;;;;;28.70;18.50;;;;;;;4.24;59.85;98290.59;108942;1249;99675;-76
2023/02/11 09:34:27;;;;;;;33.30;19.10;;;;;;;4.20;59.56;98291.35;108916;1250;95572;-74
2023/02/11 09:36:55;;;;;;;50.70;23.50;;;;;;;4.09;59.18;98286.73;108682;1251;95695;-73
2023/02/11 09:39:25;;;;;;;34.70;21.30;;;;;;;4.11;59.24;98285.51;108943;1251;112141;-72
2023/02/11 09:42:05;;;;;;;37.20;20.80;;;;;;;4.31;59.16;98283.46;108815;1251;100070;-74
2023/02/11 09:44:36;;;;;;;34.80;20.20;;;;;;;4.52;58.84;98278.43;108705;1251;99087;-73
2023/02/11 09:47:18;;;;;;;31.40;19.10;;;;;;;4.54;58.56;98268.89;108907;1249;95591;-72
2023/02/11 09:49:50;;;;;;;35.40;19.80;;;;;;;4.71;58.55;98261.70;108911;1250;95572;-73
2023/02/11 09:52:27;;;;;;;37.80;20.70;;;;;;;4.98;58.42;98257.87;108738;1254;103209;-73
2023/02/11 09:55:01;;;;;;;33.20;20.10;;;;;;;5.24;58.25;98250.36;108945;1251;100701;-72
2023/02/11 09:57:37;;;;;;;35.70;21.40;;;;;;;5.48;57.71;98242.20;108880;1251;99925;-76
2023/02/11 10:00:19;;;;;;;32.00;19.90;;;;;;;5.60;57.20;98238.73;108910;1250;95649;-72
2023/02/11 10:02:47;;;;;;;;;;;;;;;5.59;56.92;98233.73;109023;1249;95632;-73
2023/02/11 10:05:25;;;;;;;31.30;18.80;;;;;;;5.42;56.76;98234.75;108977;1250;103590;-73
2023/02/11 10:08:11;;;;;;;30.50;19.00;;;;;;;5.35;56.50;98236.17;108987;1250;101943;-71
2023/02/11 10:10:47;;;;;;;32.60;19.00;;;;;;;5.52;56.60;98237.23;108955;1249;99836;-74
2023/02/11 10:13:40;;;;;;;29.60;19.00;;;;;;;5.63;56.24;98231.85;108862;1250;95571;-74
2023/02/11 10:16:51;;;;;;;31.60;20.20;;;;;;;5.65;56.17;98231.30;108871;1250;95832;-73
2023/02/11 10:19:44;;;;;;;33.90;19.50;;;;;;;5.72;56.25;98233.87;108670;1251;103372;-73
2023/02/11 10:22:38;;;;;;;30.60;19.40;;;;;;;5.74;55.65;98230.83;109011;1249;100570;-73
2023/02/11 10:25:20;;;;;;;29.50;19.00;;;;;;;5.58;55.26;98227.90;108969;1250;99599;-75
2023/02/11 10:27:49;;;;;;;32.40;19.60;;;;;;;5.48;55.35;98228.78;108860;1251;96387;-72
2023/02/11 10:30:39;;;;;;;32.50;19.50;;;;;;;5.40;55.12;98230.63;109016;1250;95854;-73
2023/02/11 10:33:18;;;;;;;34.00;20.70;;;;;;;5.34;55.16;98228.23;108989;1249;103438;-73
2023/02/11 10:35:46;;;;;;;36.20;21.80;;;;;;;5.28;55.22;98221.75;109036;1253;100292;-74
2023/02/11 10:38:14;;;;;;;35.90;20.80;;;;;;;5.18;55.14;98216.06;108671;1251;98916;-72
2023/02/11 10:40:43;;;;;;;33.00;20.80;;;;;;;5.09;55.13;98211.39;108793;1251;95609;-74
2023/02/11 10:43:17;;;;;;;34.00;19.80;;;;;;;5.02;55.16;98203.86;108897;1251;95592;-72
2023/02/11 10:45:53;;;;;;;35.10;20.00;;;;;;;4.98;55.28;98199.37;108879;1251;103531;-75
2023/02/11 10:48:50;;;;;;;32.70;19.70;;;;;;;4.91;55.21;98201.80;108877;1251;101220;-74
2023/02/11 10:51:34;;;;;;;31.50;19.70;;;;;;;4.80;55.14;98191.59;108721;1251;99603;-73
2023/02/11 10:54:07;;;;;;;32.40;19.20;;;;;;;4.71;55.15;98181.09;108690;1250;95690;-72
2023/02/11 10:56:40;;;;;;;32.80;20.30;;;;;;;4.63;55.17;98175.21;108912;1250;95777;-71
2023/02/11 10:59:15;;;;;;;34.00;20.10;;;;;;;4.54;55.11;98166.35;108698;1251;104221;-71
2023/02/11 11:01:48;;;;;;;32.70;19.20;;;;;;;4.46;55.11;98160.95;108658;1251;101420;-73
2023/02/11 11:04:38;;;;;;;32.40;20.70;;;;;;;4.48;55.25;98154.20;108786;1250;100132;-75
2023/02/11 11:07:17;;;;;;;33.00;20.40;;;;;;;4.47;55.13;98146.84;108901;1250;95836;-74
2023/02/11 11:09:55;;;;;;;35.00;20.20;;;;;;;4.39;54.98;98148.52;108985;1249;95715;-72
2023/02/11 11:12:29;;;;;;;33.10;20.10;;;;;;;4.26;54.90;98149.11;109044;1250;102356;-73
2023/02/11 11:15:15;;;;;;;35.70;21.50;;;;;;;4.17;54.89;98151.77;109023;1249;101189;-75
2023/02/11 11:17:43;;;;;;;32.40;19.80;;;;;;;4.09;54.87;98153.53;108836;1251;99734;-73
2023/02/11 11:20:30;;;;;;;34.30;21.20;;;;;;;4.03;54.98;98150.02;108918;1250;95826;-72
2023/02/11 11:23:19;;;;;;;34.90;20.60;;;;;;;3.97;54.96;98141.27;109028;1250;95617;-73
2023/02/11 11:25:59;;;;;;;33.40;19.40;;;;;;;3.91;55.14;98132.42;109026;1250;103649;-74
2023/02/11 11:28:29;;;;;;;32.90;20.50;;;;;;;3.88;55.09;98123.14;109021;1250;101316;-73
2023/02/11 11:30:59;;;;;;;35.50;21.00;;;;;;;3.89;55.26;98119.48;108711;1249;99681;-72
2023/02/11 11:33:36;;;;;;;38.70;21.80;;;;;;;3.95;55.51;98112.36;108949;1250;95642;-74
2023/02/11 11:36:10;;;;;;;36.40;21.80;;;;;;;3.95;55.38;98096.80;108975;1250;95718;-73
2023/02/11 11:38:46;;;;;;;36.50;22.20;;;;;;;3.95;55.38;98089.64;108856;1250;102666;-72
2023/02/11 11:41:26;;;;;;;35.20;22.20;;;;;;;3.95;55.35;98079.75;108927;1251;99988;-73
2023/02/11 11:43:56;;;;;;;38.20;22.10;;;;;;;3.99;55.52;98075.79;108871;1250;98596;-73
2023/02/11 11:46:30;;;;;;;42.70;23.60;;;;;;;4.05;55.62;98066.43;108845;1251;95577;-75
2023/02/11 11:49:22;;;;;;;39.10;21.60;;;;;;;4.15;55.75;98052.65;108769;1251;95716;-73
2023/02/11 11:52:19;;;;;;;35.20;21.00;;;;;;;4.24;55.66;98055.75;108924;1251;103587;-75
2023/02/11 11:54:55;;;;;;;40.10;23.20;;;;;;;4.53;55.70;98057.20;108983;1250;101238;-73
2023/02/11 11:57:29;;;;;;;34.80;20.50;;;;;;;4.96;55.79;98062.05;108954;1250;99996;-73
2023/02/11 11:59:58;;;;;;;32.50;20.10;;;;;;;5.28;55.30;98063.92;108639;1251;95973;-75
2023/02/11 12:02:48;;;;;;;40.50;24.30;;;;;;;5.60;55.14;98058.11;109005;1250;95630;-77
2023/02/11 12:05:33;;;;;;;42.10;24.40;;;;;;;5.91;54.73;98059.89;108837;1250;102682;-74
2023/02/11 12:08:29;;;;;;;39.00;24.10;;;;;;;6.15;54.40;98055.11;109071;1249;101240;-74
2023/02/11 12:11:19;;;;;;;33.30;21.70;;;;;;;6.41;54.43;98059.19;108991;1249;99667;-75
2023/02/11 12:14:06;;;;;;;36.70;22.40;;;;;;;6.46;53.67;98063.98;108696;1249;96083;-73
2023/02/11 12:16:46;;;;;;;38.60;24.40;;;;;;;6.42;53.42;98071.22;109024;1249;95608;-72
2023/02/11 12:19:27;;;;;;;36.60;22.20;;;;;;;6.44;53.55;98082.52;109048;1250;103117;-72
2023/02/11 12:22:40;;;;;;;36.30;22.80;;;;;;;6.43;53.42;98090.23;108998;1249;101358;-71
2023/02/11 12:25:21;;;;;;;32.70;20.70;;;;;;;6.35;53.20;98086.75;108260;1259;99463;-75
2023/02/11 12:28:13;;;;;;;36.80;23.20;;;;;;;6.22;53.27;98084.03;108145;1259;95631;-73
2023/02/11 12:31:11;;;;;;;31.40;19.80;;;;;;;6.09;53.17;98085.06;108271;1259;95701;-72